This is the latest recevied weather packets stored in our database for station/object LZ2SLL-13. If no packets are shown the sender has not sent any weather packets the latest 1 day(s).
| Time | Temp. | Humidity | Pressure | Rain* | Wind** | Luminosity | Snow |
|---|---|---|---|---|---|---|---|
| 1778002691 | 11.11° C | 81% | - | 0 mm | 0 m/s | 0 W/m² | - |
| 1778002390 | 11.11° C | 82% | - | 0 mm | 0.45 m/s, 90° | 0 W/m² | - |
| 1778002092 | 11.67° C | 82% | - | 0 mm | 0.45 m/s, 77° | 0 W/m² | - |
| 1778001789 | 11.67° C | 83% | - | 0 mm | 0.45 m/s, 104° | 1 W/m² | - |
| 1778001488 | 11.67° C | 82% | - | 0 mm | 0 m/s | 2 W/m² | - |
| 1778001187 | 12.22° C | 81% | - | 0 mm | 0 m/s | 4 W/m² | - |
| 1778000886 | 12.22° C | 79% | - | 0 mm | 0 m/s | 6 W/m² | - |
| 1778000585 | 12.78° C | 78% | - | 0 mm | 0 m/s | 8 W/m² | - |
| 1778000285 | 12.78° C | 77% | - | 0 mm | 0 m/s | 11 W/m² | - |
| 1777999983 | 12.78° C | 76% | - | 0 mm | 0 m/s | 15 W/m² | - |
| 1777999682 | 13.33° C | 75% | - | 0 mm | 0 m/s | 20 W/m² | - |
| 1777999381 | 13.33° C | 73% | - | 0 mm | 0 m/s | 27 W/m² | - |
| 1777999081 | 13.33° C | 75% | - | 0 mm | 0 m/s | 28 W/m² | - |
| 1777998780 | 13.33° C | 76% | - | 0 mm | 0.45 m/s, 158° | 35 W/m² | - |
| 1777998479 | 13.33° C | 76% | - | 0 mm | 0.45 m/s, 149° | 34 W/m² | - |
| 1777998178 | 13.89° C | 73% | - | 0 mm | 0.89 m/s, 129° | 47 W/m² | - |
| 1777997877 | 13.89° C | 73% | - | 0 mm | 0.45 m/s, 188° | 61 W/m² | - |
| 1777997577 | 13.89° C | 74% | - | 0 mm | 1.34 m/s, 169° | 44 W/m² | - |
| 1777997276 | 14.44° C | 72% | - | 0 mm | 0.89 m/s, 196° | 50 W/m² | - |
| 1777996975 | 13.89° C | 71% | - | 0 mm | 1.34 m/s, 183° | 82 W/m² | - |
| 1777996674 | 14.44° C | 68% | - | 0 mm | 0.45 m/s, 166° | 51 W/m² | - |
| 1777996374 | 15° C | 70% | - | 0 mm | 0.45 m/s, 150° | 112 W/m² | - |
| 1777996073 | 14.44° C | 69% | - | 0 mm | 1.34 m/s, 111° | 80 W/m² | - |
| 1777995772 | 14.44° C | 68% | - | 0 mm | 0.45 m/s, 150° | 56 W/m² | - |
| 1777995471 | 15° C | 68% | - | 0 mm | 1.34 m/s, 138° | 114 W/m² | - |
* Rain latest hour (hover to see other rain measurements)
** Current wind speed in m/s (hover to see current wind gust speed)